createdAt,value
2022-11-07T00:00:25.871Z,100621.56
2022-11-07T00:03:28.461Z,100618.28
2022-11-07T00:06:32.302Z,100615.22
2022-11-07T00:09:34.979Z,100613.53
2022-11-07T00:12:37.232Z,100615.66
2022-11-07T00:15:39.776Z,100613.87
2022-11-07T00:18:41.971Z,100617.00
2022-11-07T00:21:45.213Z,100621.81
2022-11-07T00:24:47.426Z,100624.78
2022-11-07T00:27:49.963Z,100621.31
2022-11-07T00:30:52.152Z,100622.94
2022-11-07T00:33:54.781Z,100633.75
2022-11-07T00:36:57.036Z,100629.91
2022-11-07T00:39:59.500Z,100638.81
2022-11-07T00:43:01.666Z,100638.62
2022-11-07T00:46:06.167Z,100643.44
2022-11-07T00:49:08.327Z,100634.47
2022-11-07T00:52:10.790Z,100634.81
2022-11-07T00:55:12.977Z,100638.28
2022-11-07T00:58:17.109Z,100635.22
2022-11-07T01:01:26.087Z,100636.03
2022-11-07T01:04:47.405Z,100639.19
2022-11-07T01:07:49.601Z,100635.06
2022-11-07T01:10:52.227Z,100626.03
2022-11-07T01:13:59.303Z,100629.34
2022-11-07T01:17:01.825Z,100622.16
2022-11-07T01:20:04.399Z,100627.47
2022-11-07T01:23:07.318Z,100621.66
2022-11-07T01:26:11.037Z,100619.72
2022-11-07T01:29:14.511Z,100624.69
2022-11-07T01:32:16.814Z,100618.38
2022-11-07T01:35:19.457Z,100633.81
2022-11-07T01:38:21.622Z,100625.44
2022-11-07T01:41:30.755Z,100637.63
2022-11-07T01:44:53.141Z,100633.97
2022-11-07T01:47:58.907Z,100635.75
2022-11-07T01:51:01.439Z,100642.69
2022-11-07T01:54:05.372Z,100630.53
2022-11-07T01:57:15.352Z,100641.22
2022-11-07T02:00:22.094Z,100635.16
2022-11-07T02:03:25.620Z,100633.19
2022-11-07T02:06:39.883Z,100635.41
2022-11-07T02:09:42.922Z,100633.37
2022-11-07T02:12:45.603Z,100634.41
2022-11-07T02:15:48.153Z,100635.84
2022-11-07T02:18:50.522Z,100634.75
2022-11-07T02:22:05.638Z,100641.94
2022-11-07T02:25:11.112Z,100642.69
2022-11-07T02:28:15.833Z,100636.16
2022-11-07T02:31:17.955Z,100632.38
2022-11-07T02:34:20.384Z,100633.47
2022-11-07T02:37:28.256Z,100634.56
2022-11-07T02:40:31.726Z,100631.19
2022-11-07T02:43:37.029Z,100635.56
2022-11-07T02:46:40.227Z,100627.94
2022-11-07T02:49:42.425Z,100624.13
2022-11-07T02:52:44.938Z,100627.88
2022-11-07T02:55:47.224Z,100621.44
2022-11-07T02:58:49.866Z,100626.09
2022-11-07T03:01:52.231Z,100624.66
2022-11-07T03:04:54.899Z,100620.84
2022-11-07T03:07:57.245Z,100623.72
2022-11-07T03:10:59.770Z,100618.94
2022-11-07T03:14:01.958Z,100615.31
2022-11-07T03:17:04.482Z,100612.22
2022-11-07T03:20:08.400Z,100619.72
2022-11-07T03:23:12.493Z,100614.47
2022-11-07T03:26:15.015Z,100618.53
2022-11-07T03:29:17.576Z,100618.94
2022-11-07T03:32:22.746Z,100621.75
2022-11-07T03:35:26.538Z,100631.81
2022-11-07T03:38:28.718Z,100632.94
2022-11-07T03:41:31.158Z,100626.56
2022-11-07T03:44:33.372Z,100628.19
2022-11-07T03:47:37.604Z,100627.50
2022-11-07T03:50:39.814Z,100636.87
2022-11-07T03:53:42.312Z,100633.59
2022-11-07T03:56:44.501Z,100630.88
2022-11-07T03:59:49.027Z,100627.88
2022-11-07T04:02:51.277Z,100629.22
2022-11-07T04:05:53.900Z,100633.75
2022-11-07T04:08:56.085Z,100639.91
2022-11-07T04:12:17.651Z,100642.84
2022-11-07T04:15:38.325Z,100650.94
2022-11-07T04:18:41.049Z,100652.91
2022-11-07T04:21:43.196Z,100662.25
2022-11-07T04:24:46.579Z,100655.62
2022-11-07T04:27:48.924Z,100654.50
2022-11-07T04:30:51.457Z,100651.94
2022-11-07T04:33:53.617Z,100644.09
2022-11-07T04:36:57.034Z,100641.34
2022-11-07T04:39:59.218Z,100641.47
2022-11-07T04:43:09.264Z,100636.50
2022-11-07T04:46:11.518Z,100632.63
2022-11-07T04:49:15.199Z,100636.09
2022-11-07T04:52:17.359Z,100642.66
2022-11-07T04:55:25.723Z,100627.03
2022-11-07T04:58:28.137Z,100635.38
2022-11-07T05:01:30.945Z,100631.88
2022-11-07T05:04:33.207Z,100638.66
2022-11-07T05:07:35.851Z,100633.00
2022-11-07T05:10:38.462Z,100634.97
2022-11-07T05:13:41.359Z,100635.97
2022-11-07T05:16:44.526Z,100637.66
2022-11-07T05:19:47.853Z,100656.25
2022-11-07T05:23:08.370Z,100653.16
2022-11-07T05:26:21.447Z,100650.75
2022-11-07T05:29:24.207Z,100659.12
2022-11-07T05:32:27.638Z,100648.78
2022-11-07T05:35:29.980Z,100646.06
2022-11-07T05:38:32.423Z,100647.78
2022-11-07T05:41:35.825Z,100653.81
2022-11-07T05:44:38.304Z,100641.81
2022-11-07T05:47:44.090Z,100652.97
2022-11-07T05:50:46.573Z,100660.84
2022-11-07T05:53:48.812Z,100675.06
2022-11-07T05:56:56.692Z,100690.91
2022-11-07T05:59:59.359Z,100682.94
2022-11-07T06:03:02.024Z,100676.09
2022-11-07T06:06:05.309Z,100694.84
2022-11-07T06:09:07.570Z,100693.56
2022-11-07T06:12:10.143Z,100692.19
2022-11-07T06:15:12.520Z,100690.34
2022-11-07T06:18:18.416Z,100704.22
2022-11-07T06:21:21.114Z,100703.31
2022-11-07T06:24:23.688Z,100713.78
2022-11-07T06:27:26.485Z,100707.84
2022-11-07T06:30:29.386Z,100720.72
2022-11-07T06:33:32.711Z,100736.34
2022-11-07T06:36:35.385Z,100735.44
2022-11-07T06:39:37.547Z,100746.97
2022-11-07T06:42:40.031Z,100747.38
2022-11-07T06:45:43.631Z,100748.25
2022-11-07T06:48:46.314Z,100745.84
2022-11-07T06:51:48.391Z,100747.09
2022-11-07T06:54:50.758Z,100750.75
2022-11-07T06:57:53.352Z,100752.34
2022-11-07T07:01:01.357Z,100756.59
2022-11-07T07:04:03.490Z,100756.09
2022-11-07T07:07:06.168Z,100762.50
2022-11-07T07:10:09.155Z,100761.84
2022-11-07T07:13:14.341Z,100757.62
2022-11-07T07:16:16.692Z,100762.50
2022-11-07T07:19:19.038Z,100769.75
2022-11-07T07:22:21.134Z,100768.81
2022-11-07T07:25:23.915Z,100764.31
2022-11-07T07:28:28.062Z,100772.56
2022-11-07T07:31:31.979Z,100776.37
2022-11-07T07:34:34.620Z,100775.09
2022-11-07T07:37:37.124Z,100776.75
2022-11-07T07:40:39.184Z,100778.72
2022-11-07T07:43:44.332Z,100775.47
2022-11-07T07:46:46.689Z,100781.66
2022-11-07T07:49:49.093Z,100792.91
2022-11-07T07:52:56.219Z,100789.06
2022-11-07T07:55:59.997Z,100783.72
2022-11-07T07:59:03.114Z,100793.31
2022-11-07T08:02:08.274Z,100788.88
2022-11-07T08:05:13.065Z,100790.09
2022-11-07T08:08:15.242Z,100791.81
2022-11-07T08:11:17.585Z,100795.41
2022-11-07T08:14:19.771Z,100790.34
2022-11-07T08:17:22.241Z,100791.56
2022-11-07T08:20:27.958Z,100791.31
2022-11-07T08:23:31.143Z,100788.53
2022-11-07T08:26:33.308Z,100786.03
2022-11-07T08:29:35.648Z,100785.50
2022-11-07T08:32:37.720Z,100788.31
2022-11-07T08:35:42.693Z,100791.47
2022-11-07T08:38:45.408Z,100788.81
2022-11-07T08:41:47.716Z,100783.81
2022-11-07T08:44:49.833Z,100785.87
2022-11-07T08:47:56.604Z,100785.19
2022-11-07T08:50:59.314Z,100798.78
2022-11-07T08:54:01.671Z,100794.25
2022-11-07T08:57:03.904Z,100800.88
2022-11-07T09:00:07.419Z,100799.41
2022-11-07T09:06:34.483Z,100813.19
2022-11-07T09:09:36.548Z,100812.66
2022-11-07T09:12:49.274Z,100812.28
2022-11-07T09:15:52.107Z,100812.91
2022-11-07T09:18:55.012Z,100808.56
2022-11-07T09:21:57.394Z,100813.34
2022-11-07T09:24:59.760Z,100812.59
2022-11-07T09:28:03.189Z,100812.59
2022-11-07T09:31:06.027Z,100818.50
2022-11-07T09:34:08.121Z,100816.63
2022-11-07T09:37:11.150Z,100821.88
2022-11-07T09:40:19.390Z,100812.50
2022-11-07T09:43:46.832Z,100813.53
2022-11-07T09:47:06.215Z,100819.56
2022-11-07T09:50:42.534Z,100814.38
2022-11-07T09:53:53.382Z,100814.41
2022-11-07T09:56:59.423Z,100812.22
2022-11-07T10:00:15.002Z,100813.78
2022-11-07T10:03:18.264Z,100810.37
2022-11-07T10:06:35.296Z,100809.44
2022-11-07T10:09:46.707Z,100814.06
2022-11-07T10:13:24.025Z,100809.66
2022-11-07T10:17:01.288Z,100807.03
2022-11-07T10:20:34.266Z,100805.97
2022-11-07T10:23:52.723Z,100791.94
2022-11-07T10:26:57.196Z,100796.47
2022-11-07T10:30:01.028Z,100795.41
2022-11-07T10:33:13.899Z,100792.25
2022-11-07T10:36:25.214Z,100787.41
2022-11-07T10:39:33.191Z,100791.81
2022-11-07T10:42:36.281Z,100784.78
2022-11-07T10:45:39.479Z,100790.28
2022-11-07T10:48:52.249Z,100787.53
2022-11-07T10:52:05.897Z,100789.31
2022-11-07T10:55:19.285Z,100783.28
2022-11-07T10:58:28.671Z,100780.56
2022-11-07T11:01:31.603Z,100778.78
2022-11-07T11:04:38.444Z,100769.09
2022-11-07T11:07:41.460Z,100772.31
2022-11-07T11:10:44.059Z,100763.72
2022-11-07T11:13:47.478Z,100762.44
2022-11-07T11:16:56.375Z,100760.75
2022-11-07T11:19:59.006Z,100756.63
2022-11-07T11:23:03.712Z,100750.97
2022-11-07T11:26:12.956Z,100751.66
2022-11-07T11:29:27.802Z,100745.28
2022-11-07T11:32:30.324Z,100740.84
2022-11-07T11:36:04.643Z,100737.56
2022-11-07T11:39:41.076Z,100747.25
2022-11-07T11:43:14.772Z,100747.78
2022-11-07T11:46:49.480Z,100750.41
2022-11-07T11:50:15.523Z,100746.09
2022-11-07T11:53:20.988Z,100740.00
2022-11-07T11:56:38.953Z,100748.66
2022-11-07T12:00:05.227Z,100744.84
2022-11-07T12:03:27.570Z,100743.06
2022-11-07T12:06:44.888Z,100730.31
2022-11-07T12:09:56.735Z,100735.09
2022-11-07T12:13:10.723Z,100730.91
2022-11-07T12:16:45.440Z,100733.13
2022-11-07T12:19:54.392Z,100730.81
2022-11-07T12:23:21.025Z,100736.59
2022-11-07T12:26:34.324Z,100730.38
2022-11-07T12:29:59.351Z,100730.09
2022-11-07T12:33:15.092Z,100729.75
2022-11-07T12:36:37.527Z,100722.06
2022-11-07T12:40:10.424Z,100719.56
2022-11-07T12:43:22.155Z,100722.41
2022-11-07T12:47:00.276Z,100728.28
2022-11-07T12:50:17.429Z,100723.19
2022-11-07T12:53:43.886Z,100722.47
2022-11-07T12:56:48.080Z,100730.34
2022-11-07T12:59:57.273Z,100730.00
2022-11-07T13:03:17.983Z,100726.41
2022-11-07T13:06:56.482Z,100724.41
2022-11-07T13:10:01.545Z,100726.84
2022-11-07T13:13:19.140Z,100723.09
2022-11-07T13:16:34.605Z,100729.28
2022-11-07T13:19:40.655Z,100722.03
2022-11-07T13:22:42.744Z,100722.25
2022-11-07T13:25:45.205Z,100729.66
2022-11-07T13:29:01.797Z,100726.56
2022-11-07T13:32:06.759Z,100728.63
2022-11-07T13:35:23.536Z,100726.59
2022-11-07T13:38:27.576Z,100721.00
2022-11-07T13:41:31.185Z,100716.16
2022-11-07T13:44:37.300Z,100723.56
2022-11-07T13:47:42.484Z,100716.72
2022-11-07T13:50:57.810Z,100721.44
2022-11-07T13:54:28.976Z,100723.03
2022-11-07T13:57:36.946Z,100705.41
2022-11-07T14:00:39.100Z,100713.75
2022-11-07T14:03:41.503Z,100708.72
2022-11-07T14:06:44.448Z,100715.75
2022-11-07T14:09:47.394Z,100716.25
2022-11-07T14:12:53.288Z,100718.91
2022-11-07T14:16:07.600Z,100711.84
2022-11-07T14:19:24.122Z,100711.22
2022-11-07T14:22:27.953Z,100715.34
2022-11-07T14:25:33.062Z,100721.34
2022-11-07T14:28:37.580Z,100729.34
2022-11-07T14:31:39.750Z,100722.28
2022-11-07T14:34:47.549Z,100723.53
2022-11-07T14:37:52.274Z,100722.28
2022-11-07T14:40:58.710Z,100725.13
2022-11-07T14:44:03.665Z,100726.88
2022-11-07T14:47:08.328Z,100728.75
2022-11-07T14:50:15.766Z,100727.75
2022-11-07T14:53:24.882Z,100727.88
2022-11-07T14:56:34.184Z,100731.19
2022-11-07T14:59:37.827Z,100732.53
2022-11-07T15:02:40.051Z,100735.09
2022-11-07T15:05:45.286Z,100733.22
2022-11-07T15:08:57.367Z,100737.47
2022-11-07T15:12:01.084Z,100730.34
2022-11-07T15:15:18.963Z,100738.69
2022-11-07T15:18:27.053Z,100740.09
2022-11-07T15:21:32.739Z,100736.16
2022-11-07T15:24:46.248Z,100738.41
2022-11-07T15:27:48.652Z,100742.31
2022-11-07T15:30:54.810Z,100736.78
2022-11-07T15:33:59.134Z,100743.59
2022-11-07T15:37:09.441Z,100734.78
2022-11-07T15:40:16.528Z,100740.34
2022-11-07T15:43:19.523Z,100740.34
2022-11-07T15:46:31.161Z,100747.62
2022-11-07T15:49:34.756Z,100761.09
2022-11-07T15:52:36.924Z,100755.44
2022-11-07T15:55:39.423Z,100752.06
2022-11-07T15:58:42.290Z,100751.06
2022-11-07T16:01:45.636Z,100748.97
2022-11-07T16:04:48.258Z,100750.41
2022-11-07T16:07:50.467Z,100761.22
2022-11-07T16:11:01.212Z,100761.25
2022-11-07T16:14:34.555Z,100757.69
2022-11-07T16:17:28.597Z,100766.41
2022-11-07T16:20:33.603Z,100769.44
2022-11-07T16:23:36.289Z,100768.66
2022-11-07T16:26:39.721Z,100766.97
2022-11-07T16:29:44.234Z,100776.13
2022-11-07T16:32:47.233Z,100775.44
2022-11-07T16:35:52.731Z,100780.47
2022-11-07T16:38:56.792Z,100778.63
2022-11-07T16:41:59.330Z,100781.25
2022-11-07T16:45:03.549Z,100784.62
2022-11-07T16:48:06.847Z,100785.38
2022-11-07T16:51:15.521Z,100786.03
2022-11-07T16:54:18.045Z,100787.91
2022-11-07T16:57:20.281Z,100783.66
2022-11-07T17:00:24.193Z,100791.25
2022-11-07T17:03:27.066Z,100789.75
2022-11-07T17:06:36.208Z,100794.00
2022-11-07T17:09:38.218Z,100795.72
2022-11-07T17:12:41.211Z,100791.69
2022-11-07T17:15:44.113Z,100796.78
2022-11-07T17:18:47.396Z,100791.94
2022-11-07T17:21:49.682Z,100793.63
2022-11-07T17:24:52.232Z,100802.25
2022-11-07T17:27:54.474Z,100801.94
2022-11-07T17:30:56.971Z,100809.03
2022-11-07T17:34:00.296Z,100808.03
2022-11-07T17:37:02.920Z,100809.06
2022-11-07T17:40:06.485Z,100813.59
2022-11-07T17:43:09.197Z,100818.44
2022-11-07T17:46:15.947Z,100821.34
2022-11-07T17:49:19.710Z,100823.03
2022-11-07T17:52:22.186Z,100824.34
2022-11-07T17:55:25.433Z,100829.22
2022-11-07T17:58:27.696Z,100824.31
2022-11-07T18:01:32.840Z,100825.75
2022-11-07T18:04:36.303Z,100828.84
2022-11-07T18:07:40.805Z,100828.59
2022-11-07T18:10:43.292Z,100828.53
2022-11-07T18:13:45.864Z,100825.03
2022-11-07T18:16:48.511Z,100823.50
2022-11-07T18:19:50.861Z,100817.94
2022-11-07T18:22:56.148Z,100818.03
2022-11-07T18:26:07.643Z,100827.31
2022-11-07T18:29:13.221Z,100825.62
2022-11-07T18:32:15.434Z,100819.63
2022-11-07T18:35:17.944Z,100831.06
2022-11-07T18:38:20.136Z,100832.97
2022-11-07T18:41:24.611Z,100839.12
2022-11-07T18:44:26.788Z,100832.84
2022-11-07T18:47:29.668Z,100827.37
2022-11-07T18:50:31.892Z,100826.13
2022-11-07T18:53:34.482Z,100823.94
2022-11-07T18:56:37.194Z,100827.25
2022-11-07T18:59:39.914Z,100816.72
2022-11-07T19:02:42.197Z,100816.03
2022-11-07T19:05:44.947Z,100811.50
2022-11-07T19:08:49.051Z,100814.97
2022-11-07T19:11:51.544Z,100821.38
2022-11-07T19:14:53.727Z,100816.50
2022-11-07T19:17:56.235Z,100822.38
2022-11-07T19:20:58.808Z,100818.44
2022-11-07T19:24:01.283Z,100829.34
2022-11-07T19:27:03.542Z,100824.47
2022-11-07T19:30:06.812Z,100824.88
2022-11-07T19:33:10.275Z,100827.81
2022-11-07T19:36:16.954Z,100832.16
2022-11-07T19:39:19.136Z,100832.28
2022-11-07T19:42:26.736Z,100834.56
2022-11-07T19:45:30.271Z,100840.25
2022-11-07T19:48:32.782Z,100842.16
2022-11-07T19:51:36.371Z,100838.56
2022-11-07T19:54:39.000Z,100835.47
2022-11-07T19:57:41.363Z,100843.53
2022-11-07T20:00:43.902Z,100835.44
2022-11-07T20:03:48.854Z,100841.53
2022-11-07T20:06:54.833Z,100845.38
2022-11-07T20:09:58.773Z,100841.03
2022-11-07T20:13:01.038Z,100844.97
2022-11-07T20:16:03.735Z,100846.66
2022-11-07T20:19:06.148Z,100848.59
2022-11-07T20:22:10.236Z,100860.06
2022-11-07T20:25:12.635Z,100866.22
2022-11-07T20:28:15.130Z,100863.22
2022-11-07T20:31:26.921Z,100858.03
2022-11-07T20:34:29.484Z,100858.97
2022-11-07T20:37:34.127Z,100862.69
2022-11-07T20:40:37.299Z,100861.38
2022-11-07T20:43:40.697Z,100859.47
2022-11-07T20:46:45.671Z,100860.25
2022-11-07T20:49:47.979Z,100862.34
2022-11-07T20:52:50.465Z,100860.31
2022-11-07T20:55:52.697Z,100852.84
2022-11-07T20:58:55.368Z,100854.91
2022-11-07T21:02:03.195Z,100849.12
2022-11-07T21:05:21.968Z,100852.19
2022-11-07T21:08:24.114Z,100853.03
2022-11-07T21:11:28.663Z,100855.25
2022-11-07T21:14:30.920Z,100853.78
2022-11-07T21:17:34.016Z,100858.59
2022-11-07T21:20:37.561Z,100860.09
2022-11-07T21:23:40.038Z,100858.78
2022-11-07T21:26:43.563Z,100863.03
2022-11-07T21:29:46.124Z,100862.53
2022-11-07T21:32:48.414Z,100860.03
2022-11-07T21:35:50.978Z,100860.84
2022-11-07T21:39:00.868Z,100869.38
2022-11-07T21:42:04.414Z,100868.78
2022-11-07T21:45:07.128Z,100867.28
2022-11-07T21:48:10.076Z,100863.81
2022-11-07T21:51:18.048Z,100865.53
2022-11-07T21:54:20.605Z,100858.16
2022-11-07T21:57:25.878Z,100859.50
2022-11-07T22:00:31.733Z,100863.31
2022-11-07T22:04:04.794Z,100863.87
2022-11-07T22:07:01.134Z,100864.06
2022-11-07T22:10:05.186Z,100865.59
2022-11-07T22:13:07.489Z,100865.13
2022-11-07T22:16:20.757Z,100871.44
2022-11-07T22:19:23.081Z,100866.94
2022-11-07T22:22:25.584Z,100869.03
2022-11-07T22:25:28.085Z,100865.03
2022-11-07T22:28:30.975Z,100865.03
2022-11-07T22:31:33.434Z,100867.59
2022-11-07T22:34:36.053Z,100868.66
2022-11-07T22:37:39.962Z,100860.81
2022-11-07T22:40:47.064Z,100864.75
2022-11-07T22:43:49.940Z,100864.50
2022-11-07T22:46:52.908Z,100862.03
2022-11-07T22:49:55.168Z,100862.78
2022-11-07T22:52:57.719Z,100859.97
2022-11-07T22:56:07.302Z,100858.34
2022-11-07T22:59:11.099Z,100860.16
2022-11-07T23:02:13.354Z,100857.28
2022-11-07T23:05:16.024Z,100854.47
2022-11-07T23:08:19.488Z,100869.47
2022-11-07T23:11:45.406Z,100859.59
2022-11-07T23:14:47.859Z,100867.91
2022-11-07T23:17:52.452Z,100868.22
2022-11-07T23:21:11.962Z,100862.41
2022-11-07T23:24:14.745Z,100865.44
2022-11-07T23:27:18.459Z,100864.47
2022-11-07T23:30:21.335Z,100862.44
2022-11-07T23:33:23.541Z,100860.13
2022-11-07T23:36:26.190Z,100857.37
2022-11-07T23:39:28.551Z,100852.75
2022-11-07T23:42:31.169Z,100856.00
2022-11-07T23:45:52.475Z,100861.94
2022-11-07T23:49:15.016Z,100859.09
2022-11-07T23:52:17.952Z,100867.56
2022-11-07T23:55:39.071Z,100865.25
2022-11-07T23:58:59.831Z,100869.91
